sensor_id;sensor_type;location;lat;lon;timestamp;temperature;humidity
680;DHT22;322;48.846;9.230;2024-02-21T00:00:23;6.90;99.90
680;DHT22;322;48.846;9.230;2024-02-21T00:02:52;6.90;99.90
680;DHT22;322;48.846;9.230;2024-02-21T00:05:23;6.80;99.90
680;DHT22;322;48.846;9.230;2024-02-21T00:07:51;6.70;99.90
680;DHT22;322;48.846;9.230;2024-02-21T00:10:19;6.70;99.90
680;DHT22;322;48.846;9.230;2024-02-21T00:12:47;6.60;99.90
680;DHT22;322;48.846;9.230;2024-02-21T00:15:15;6.70;99.90
680;DHT22;322;48.846;9.230;2024-02-21T00:17:44;6.70;99.90
680;DHT22;322;48.846;9.230;2024-02-21T00:20:13;6.70;99.90
680;DHT22;322;48.846;9.230;2024-02-21T00:22:41;6.70;99.90
680;DHT22;322;48.846;9.230;2024-02-21T00:25:09;6.80;99.90
680;DHT22;322;48.846;9.230;2024-02-21T00:27:38;6.90;99.90
680;DHT22;322;48.846;9.230;2024-02-21T00:30:07;6.90;99.90
680;DHT22;322;48.846;9.230;2024-02-21T00:32:35;7.00;99.90
680;DHT22;322;48.846;9.230;2024-02-21T00:35:03;7.00;99.90
680;DHT22;322;48.846;9.230;2024-02-21T00:37:33;7.00;99.90
680;DHT22;322;48.846;9.230;2024-02-21T00:40:01;7.00;99.90
680;DHT22;322;48.846;9.230;2024-02-21T00:42:29;7.00;99.90
680;DHT22;322;48.846;9.230;2024-02-21T00:44:58;7.00;99.90
680;DHT22;322;48.846;9.230;2024-02-21T00:47:26;7.10;99.90
680;DHT22;322;48.846;9.230;2024-02-21T00:49:54;7.10;99.90
680;DHT22;322;48.846;9.230;2024-02-21T00:52:22;7.20;99.90
680;DHT22;322;48.846;9.230;2024-02-21T00:54:52;7.20;99.90
680;DHT22;322;48.846;9.230;2024-02-21T00:57:21;7.10;99.90
680;DHT22;322;48.846;9.230;2024-02-21T00:59:50;7.10;99.90
680;DHT22;322;48.846;9.230;2024-02-21T01:02:18;7.10;99.90
680;DHT22;322;48.846;9.230;2024-02-21T01:04:46;7.20;99.90
680;DHT22;322;48.846;9.230;2024-02-21T01:07:14;7.20;99.90
680;DHT22;322;48.846;9.230;2024-02-21T01:09:42;7.20;99.90
680;DHT22;322;48.846;9.230;2024-02-21T01:12:12;7.10;99.90
680;DHT22;322;48.846;9.230;2024-02-21T01:14:39;7.10;99.90
680;DHT22;322;48.846;9.230;2024-02-21T01:17:07;7.10;99.90
680;DHT22;322;48.846;9.230;2024-02-21T01:19:35;7.00;99.90
680;DHT22;322;48.846;9.230;2024-02-21T01:22:04;7.00;99.90
680;DHT22;322;48.846;9.230;2024-02-21T01:24:32;7.00;99.90
680;DHT22;322;48.846;9.230;2024-02-21T01:27:00;7.00;99.90
680;DHT22;322;48.846;9.230;2024-02-21T01:29:29;6.90;99.90
680;DHT22;322;48.846;9.230;2024-02-21T01:31:57;6.90;99.90
680;DHT22;322;48.846;9.230;2024-02-21T01:34:25;7.00;99.90
680;DHT22;322;48.846;9.230;2024-02-21T01:36:58;7.00;99.90
680;DHT22;322;48.846;9.230;2024-02-21T01:39:30;7.00;99.90
680;DHT22;322;48.846;9.230;2024-02-21T01:41:58;7.00;99.90
680;DHT22;322;48.846;9.230;2024-02-21T01:44:26;7.00;99.90
680;DHT22;322;48.846;9.230;2024-02-21T01:46:56;6.90;99.90
680;DHT22;322;48.846;9.230;2024-02-21T01:49:24;6.90;99.90
680;DHT22;322;48.846;9.230;2024-02-21T01:51:52;6.80;99.90
680;DHT22;322;48.846;9.230;2024-02-21T01:54:21;6.80;99.90
680;DHT22;322;48.846;9.230;2024-02-21T01:56:49;6.90;99.90
680;DHT22;322;48.846;9.230;2024-02-21T01:59:18;6.90;99.90
680;DHT22;322;48.846;9.230;2024-02-21T02:01:47;6.90;99.90
680;DHT22;322;48.846;9.230;2024-02-21T02:04:16;6.80;99.90
680;DHT22;322;48.846;9.230;2024-02-21T02:06:44;6.80;99.90
680;DHT22;322;48.846;9.230;2024-02-21T02:09:12;6.80;99.90
680;DHT22;322;48.846;9.230;2024-02-21T02:11:40;6.80;99.90
680;DHT22;322;48.846;9.230;2024-02-21T02:14:08;6.80;99.90
680;DHT22;322;48.846;9.230;2024-02-21T02:16:36;6.90;99.90
680;DHT22;322;48.846;9.230;2024-02-21T02:19:05;7.00;99.90
680;DHT22;322;48.846;9.230;2024-02-21T02:21:39;7.00;99.90
680;DHT22;322;48.846;9.230;2024-02-21T02:24:10;7.10;99.90
680;DHT22;322;48.846;9.230;2024-02-21T02:26:38;7.00;99.90
680;DHT22;322;48.846;9.230;2024-02-21T02:29:06;7.10;99.90
680;DHT22;322;48.846;9.230;2024-02-21T02:31:34;7.10;99.90
680;DHT22;322;48.846;9.230;2024-02-21T02:34:03;7.10;99.90
680;DHT22;322;48.846;9.230;2024-02-21T02:36:32;7.10;99.90
680;DHT22;322;48.846;9.230;2024-02-21T02:39:00;7.10;99.90
680;DHT22;322;48.846;9.230;2024-02-21T02:41:30;7.20;99.90
680;DHT22;322;48.846;9.230;2024-02-21T02:43:58;7.10;99.90
680;DHT22;322;48.846;9.230;2024-02-21T02:46:26;7.10;99.90
680;DHT22;322;48.846;9.230;2024-02-21T02:48:54;7.10;99.90
680;DHT22;322;48.846;9.230;2024-02-21T02:51:22;7.20;99.90
680;DHT22;322;48.846;9.230;2024-02-21T02:53:50;7.20;99.90
680;DHT22;322;48.846;9.230;2024-02-21T02:56:18;7.10;99.90
680;DHT22;322;48.846;9.230;2024-02-21T02:58:47;7.00;99.90
680;DHT22;322;48.846;9.230;2024-02-21T03:01:15;7.00;99.90
680;DHT22;322;48.846;9.230;2024-02-21T03:03:43;6.90;99.90
680;DHT22;322;48.846;9.230;2024-02-21T03:06:12;6.80;99.90
680;DHT22;322;48.846;9.230;2024-02-21T03:08:40;6.70;99.90
680;DHT22;322;48.846;9.230;2024-02-21T03:11:10;6.70;99.90
680;DHT22;322;48.846;9.230;2024-02-21T03:13:38;6.70;99.90
680;DHT22;322;48.846;9.230;2024-02-21T03:16:08;6.70;99.90
680;DHT22;322;48.846;9.230;2024-02-21T03:18:36;6.70;99.90
680;DHT22;322;48.846;9.230;2024-02-21T03:21:04;6.70;99.90
680;DHT22;322;48.846;9.230;2024-02-21T03:23:32;6.60;99.90
680;DHT22;322;48.846;9.230;2024-02-21T03:26:00;6.40;99.90
680;DHT22;322;48.846;9.230;2024-02-21T03:28:28;6.30;99.90
680;DHT22;322;48.846;9.230;2024-02-21T03:30:57;6.30;99.90
680;DHT22;322;48.846;9.230;2024-02-21T03:33:27;6.20;99.90
680;DHT22;322;48.846;9.230;2024-02-21T03:35:55;6.10;99.90
680;DHT22;322;48.846;9.230;2024-02-21T03:38:22;6.00;99.90
680;DHT22;322;48.846;9.230;2024-02-21T03:40:50;6.10;99.90
680;DHT22;322;48.846;9.230;2024-02-21T03:43:18;6.20;99.90
680;DHT22;322;48.846;9.230;2024-02-21T03:45:46;6.10;99.90
680;DHT22;322;48.846;9.230;2024-02-21T03:48:14;6.10;99.90
680;DHT22;322;48.846;9.230;2024-02-21T03:50:43;6.20;99.90
680;DHT22;322;48.846;9.230;2024-02-21T03:53:11;6.10;99.90
680;DHT22;322;48.846;9.230;2024-02-21T03:55:39;6.10;99.90
680;DHT22;322;48.846;9.230;2024-02-21T03:58:07;6.10;99.90
680;DHT22;322;48.846;9.230;2024-02-21T04:00:35;6.10;99.90
680;DHT22;322;48.846;9.230;2024-02-21T04:03:03;6.00;99.90
680;DHT22;322;48.846;9.230;2024-02-21T04:05:33;6.00;99.90
680;DHT22;322;48.846;9.230;2024-02-21T04:08:05;6.10;99.90
680;DHT22;322;48.846;9.230;2024-02-21T04:10:33;6.20;99.90
680;DHT22;322;48.846;9.230;2024-02-21T04:13:01;6.10;99.90
680;DHT22;322;48.846;9.230;2024-02-21T04:15:29;6.10;99.90
680;DHT22;322;48.846;9.230;2024-02-21T04:17:57;6.10;99.90
680;DHT22;322;48.846;9.230;2024-02-21T04:20:25;6.10;99.90
680;DHT22;322;48.846;9.230;2024-02-21T04:22:53;6.00;99.90
680;DHT22;322;48.846;9.230;2024-02-21T04:25:25;6.00;99.90
680;DHT22;322;48.846;9.230;2024-02-21T04:27:53;5.90;99.90
680;DHT22;322;48.846;9.230;2024-02-21T04:30:24;5.90;99.90
680;DHT22;322;48.846;9.230;2024-02-21T04:32:51;5.90;99.90
680;DHT22;322;48.846;9.230;2024-02-21T04:35:20;5.90;99.90
680;DHT22;322;48.846;9.230;2024-02-21T04:37:49;6.00;99.90
680;DHT22;322;48.846;9.230;2024-02-21T04:40:17;5.90;99.90
680;DHT22;322;48.846;9.230;2024-02-21T04:42:47;5.80;99.90
680;DHT22;322;48.846;9.230;2024-02-21T04:45:15;5.70;99.90
680;DHT22;322;48.846;9.230;2024-02-21T04:47:44;5.60;99.90
680;DHT22;322;48.846;9.230;2024-02-21T04:50:12;5.50;99.90
680;DHT22;322;48.846;9.230;2024-02-21T04:52:40;5.50;99.90
680;DHT22;322;48.846;9.230;2024-02-21T04:55:08;5.60;99.90
680;DHT22;322;48.846;9.230;2024-02-21T04:57:36;5.70;99.90
680;DHT22;322;48.846;9.230;2024-02-21T05:00:07;5.70;99.90
680;DHT22;322;48.846;9.230;2024-02-21T05:02:35;5.60;99.90
680;DHT22;322;48.846;9.230;2024-02-21T05:05:03;5.40;99.90
680;DHT22;322;48.846;9.230;2024-02-21T05:07:32;5.20;99.90
680;DHT22;322;48.846;9.230;2024-02-21T05:10:00;5.10;99.90
680;DHT22;322;48.846;9.230;2024-02-21T05:12:28;4.90;99.90
680;DHT22;322;48.846;9.230;2024-02-21T05:14:56;4.80;99.90
680;DHT22;322;48.846;9.230;2024-02-21T05:17:26;4.70;99.90
680;DHT22;322;48.846;9.230;2024-02-21T05:19:54;4.70;99.90
680;DHT22;322;48.846;9.230;2024-02-21T05:22:22;4.60;99.90
680;DHT22;322;48.846;9.230;2024-02-21T05:24:50;4.60;99.90
680;DHT22;322;48.846;9.230;2024-02-21T05:27:17;4.60;99.90
680;DHT22;322;48.846;9.230;2024-02-21T05:29:45;4.60;99.90
680;DHT22;322;48.846;9.230;2024-02-21T05:32:15;4.50;99.90
680;DHT22;322;48.846;9.230;2024-02-21T05:34:44;4.60;99.90
680;DHT22;322;48.846;9.230;2024-02-21T05:37:12;4.70;99.90
680;DHT22;322;48.846;9.230;2024-02-21T05:39:40;4.80;99.90
680;DHT22;322;48.846;9.230;2024-02-21T05:42:08;4.80;99.90
680;DHT22;322;48.846;9.230;2024-02-21T05:44:36;5.00;99.90
680;DHT22;322;48.846;9.230;2024-02-21T05:47:04;5.00;99.90
680;DHT22;322;48.846;9.230;2024-02-21T05:49:36;5.10;99.90
680;DHT22;322;48.846;9.230;2024-02-21T05:52:06;5.10;99.90
680;DHT22;322;48.846;9.230;2024-02-21T05:54:34;5.20;99.90
680;DHT22;322;48.846;9.230;2024-02-21T05:57:04;5.20;99.90
680;DHT22;322;48.846;9.230;2024-02-21T05:59:33;5.30;99.90
680;DHT22;322;48.846;9.230;2024-02-21T06:02:03;5.30;99.90
680;DHT22;322;48.846;9.230;2024-02-21T06:04:31;5.30;99.90
680;DHT22;322;48.846;9.230;2024-02-21T06:06:59;5.30;99.90
680;DHT22;322;48.846;9.230;2024-02-21T06:09:29;5.20;99.90
680;DHT22;322;48.846;9.230;2024-02-21T06:11:57;5.30;99.90
680;DHT22;322;48.846;9.230;2024-02-21T06:14:25;5.20;99.90
680;DHT22;322;48.846;9.230;2024-02-21T06:16:53;5.20;99.90
680;DHT22;322;48.846;9.230;2024-02-21T06:19:21;5.10;99.90
680;DHT22;322;48.846;9.230;2024-02-21T06:21:49;5.00;99.90
680;DHT22;322;48.846;9.230;2024-02-21T06:24:17;5.00;99.90
680;DHT22;322;48.846;9.230;2024-02-21T06:26:46;4.80;99.90
680;DHT22;322;48.846;9.230;2024-02-21T06:29:14;4.70;99.90
680;DHT22;322;48.846;9.230;2024-02-21T06:31:42;4.50;99.90
680;DHT22;322;48.846;9.230;2024-02-21T06:34:10;4.50;99.90
680;DHT22;322;48.846;9.230;2024-02-21T06:36:38;4.60;99.90
680;DHT22;322;48.846;9.230;2024-02-21T06:39:06;4.70;99.90
680;DHT22;322;48.846;9.230;2024-02-21T06:41:35;4.80;99.90
680;DHT22;322;48.846;9.230;2024-02-21T06:44:04;4.80;99.90
680;DHT22;322;48.846;9.230;2024-02-21T06:46:32;4.90;99.90
680;DHT22;322;48.846;9.230;2024-02-21T06:49:01;4.90;99.90
680;DHT22;322;48.846;9.230;2024-02-21T06:51:30;4.90;99.90
680;DHT22;322;48.846;9.230;2024-02-21T06:53:58;4.80;99.90
680;DHT22;322;48.846;9.230;2024-02-21T06:56:26;4.70;99.90
680;DHT22;322;48.846;9.230;2024-02-21T06:59:07;4.80;99.90
680;DHT22;322;48.846;9.230;2024-02-21T07:01:38;5.00;99.90
680;DHT22;322;48.846;9.230;2024-02-21T07:04:06;5.00;99.90
680;DHT22;322;48.846;9.230;2024-02-21T07:06:34;5.20;99.90
680;DHT22;322;48.846;9.230;2024-02-21T07:09:02;5.20;99.90
680;DHT22;322;48.846;9.230;2024-02-21T07:11:30;5.30;99.90
680;DHT22;322;48.846;9.230;2024-02-21T07:13:58;5.40;99.90
680;DHT22;322;48.846;9.230;2024-02-21T07:16:28;5.50;99.90
680;DHT22;322;48.846;9.230;2024-02-21T07:18:56;5.60;99.90
680;DHT22;322;48.846;9.230;2024-02-21T07:21:25;5.70;99.90
680;DHT22;322;48.846;9.230;2024-02-21T07:23:52;5.80;99.90
680;DHT22;322;48.846;9.230;2024-02-21T07:26:20;5.80;99.90
680;DHT22;322;48.846;9.230;2024-02-21T07:28:49;6.00;99.90
680;DHT22;322;48.846;9.230;2024-02-21T07:31:17;6.20;99.90
680;DHT22;322;48.846;9.230;2024-02-21T07:33:46;6.40;99.90
680;DHT22;322;48.846;9.230;2024-02-21T07:36:15;6.50;99.90
680;DHT22;322;48.846;9.230;2024-02-21T07:38:43;6.60;99.90
680;DHT22;322;48.846;9.230;2024-02-21T07:41:11;6.70;99.90
680;DHT22;322;48.846;9.230;2024-02-21T07:43:39;6.90;99.90
680;DHT22;322;48.846;9.230;2024-02-21T07:46:07;7.10;99.90
680;DHT22;322;48.846;9.230;2024-02-21T07:48:35;7.20;99.90
680;DHT22;322;48.846;9.230;2024-02-21T07:51:05;7.30;99.90
680;DHT22;322;48.846;9.230;2024-02-21T07:53:33;7.50;99.90
680;DHT22;322;48.846;9.230;2024-02-21T07:56:01;7.60;99.90
680;DHT22;322;48.846;9.230;2024-02-21T07:58:29;7.70;99.90
680;DHT22;322;48.846;9.230;2024-02-21T08:00:57;7.80;99.90
680;DHT22;322;48.846;9.230;2024-02-21T08:03:25;8.00;99.90
680;DHT22;322;48.846;9.230;2024-02-21T08:05:53;8.10;99.90
680;DHT22;322;48.846;9.230;2024-02-21T08:08:23;8.10;99.90
680;DHT22;322;48.846;9.230;2024-02-21T08:10:51;8.20;99.90
680;DHT22;322;48.846;9.230;2024-02-21T08:13:20;8.30;99.90
680;DHT22;322;48.846;9.230;2024-02-21T08:15:48;8.40;99.90
680;DHT22;322;48.846;9.230;2024-02-21T08:18:16;8.50;99.90
680;DHT22;322;48.846;9.230;2024-02-21T08:20:44;8.70;99.90
680;DHT22;322;48.846;9.230;2024-02-21T08:23:12;8.90;99.90
680;DHT22;322;48.846;9.230;2024-02-21T08:25:41;9.10;99.90
680;DHT22;322;48.846;9.230;2024-02-21T08:28:09;9.10;99.90
680;DHT22;322;48.846;9.230;2024-02-21T08:30:37;9.30;99.90
680;DHT22;322;48.846;9.230;2024-02-21T08:33:05;9.40;99.90
680;DHT22;322;48.846;9.230;2024-02-21T08:35:33;9.60;99.90
680;DHT22;322;48.846;9.230;2024-02-21T08:38:01;9.60;99.90
680;DHT22;322;48.846;9.230;2024-02-21T08:40:29;9.70;99.90
680;DHT22;322;48.846;9.230;2024-02-21T08:42:59;9.80;99.90
680;DHT22;322;48.846;9.230;2024-02-21T08:45:28;9.90;99.90
680;DHT22;322;48.846;9.230;2024-02-21T08:47:56;9.90;99.90
680;DHT22;322;48.846;9.230;2024-02-21T08:50:24;10.00;99.90
680;DHT22;322;48.846;9.230;2024-02-21T08:52:55;10.10;99.90
680;DHT22;322;48.846;9.230;2024-02-21T08:55:24;10.10;99.90
680;DHT22;322;48.846;9.230;2024-02-21T08:57:52;10.30;99.90
680;DHT22;322;48.846;9.230;2024-02-21T09:00:21;10.30;99.90
680;DHT22;322;48.846;9.230;2024-02-21T09:02:54;10.30;99.90
680;DHT22;322;48.846;9.230;2024-02-21T09:05:23;10.40;99.90
680;DHT22;322;48.846;9.230;2024-02-21T09:07:52;10.50;99.90
680;DHT22;322;48.846;9.230;2024-02-21T09:10:20;10.50;99.90
680;DHT22;322;48.846;9.230;2024-02-21T09:12:48;10.60;99.90
680;DHT22;322;48.846;9.230;2024-02-21T09:15:17;10.50;99.60
680;DHT22;322;48.846;9.230;2024-02-21T09:17:46;10.50;99.90
680;DHT22;322;48.846;9.230;2024-02-21T09:20:14;10.50;99.80
680;DHT22;322;48.846;9.230;2024-02-21T09:22:43;10.60;99.40
680;DHT22;322;48.846;9.230;2024-02-21T09:25:11;10.60;99.00
680;DHT22;322;48.846;9.230;2024-02-21T09:27:39;10.50;98.80
680;DHT22;322;48.846;9.230;2024-02-21T09:30:08;10.70;99.30
680;DHT22;322;48.846;9.230;2024-02-21T09:32:36;10.80;99.90
680;DHT22;322;48.846;9.230;2024-02-21T09:35:06;10.70;99.80
680;DHT22;322;48.846;9.230;2024-02-21T09:37:34;11.00;97.90
680;DHT22;322;48.846;9.230;2024-02-21T09:40:05;11.00;98.60
680;DHT22;322;48.846;9.230;2024-02-21T09:42:37;11.10;97.40
680;DHT22;322;48.846;9.230;2024-02-21T09:45:08;11.20;97.70
680;DHT22;322;48.846;9.230;2024-02-21T09:47:48;11.50;96.90
680;DHT22;322;48.846;9.230;2024-02-21T09:50:19;11.60;96.90
680;DHT22;322;48.846;9.230;2024-02-21T09:52:49;11.90;97.10
680;DHT22;322;48.846;9.230;2024-02-21T09:55:19;12.20;95.20
680;DHT22;322;48.846;9.230;2024-02-21T09:57:48;12.30;94.40
680;DHT22;322;48.846;9.230;2024-02-21T10:00:17;12.50;94.50
680;DHT22;322;48.846;9.230;2024-02-21T10:02:48;12.60;92.70
680;DHT22;322;48.846;9.230;2024-02-21T10:05:17;12.80;92.10
680;DHT22;322;48.846;9.230;2024-02-21T10:07:47;13.10;92.70
680;DHT22;322;48.846;9.230;2024-02-21T10:10:16;13.40;91.30
680;DHT22;322;48.846;9.230;2024-02-21T10:12:48;13.90;91.40
680;DHT22;322;48.846;9.230;2024-02-21T10:15:20;14.20;84.60
680;DHT22;322;48.846;9.230;2024-02-21T10:17:49;14.30;82.70
680;DHT22;322;48.846;9.230;2024-02-21T10:20:17;14.30;82.30
680;DHT22;322;48.846;9.230;2024-02-21T10:22:46;14.40;82.10
680;DHT22;322;48.846;9.230;2024-02-21T10:25:15;14.60;82.80
680;DHT22;322;48.846;9.230;2024-02-21T10:27:43;14.90;77.80
680;DHT22;322;48.846;9.230;2024-02-21T10:30:13;14.90;76.60
680;DHT22;322;48.846;9.230;2024-02-21T10:32:50;15.00;74.80
680;DHT22;322;48.846;9.230;2024-02-21T10:35:26;15.10;76.90
680;DHT22;322;48.846;9.230;2024-02-21T10:37:56;15.30;74.00
680;DHT22;322;48.846;9.230;2024-02-21T10:40:26;15.50;72.90
680;DHT22;322;48.846;9.230;2024-02-21T10:42:57;15.60;71.70
680;DHT22;322;48.846;9.230;2024-02-21T10:45:30;15.80;71.90
680;DHT22;322;48.846;9.230;2024-02-21T10:48:08;16.10;69.30
680;DHT22;322;48.846;9.230;2024-02-21T10:50:52;16.20;66.90
680;DHT22;322;48.846;9.230;2024-02-21T10:53:29;16.10;67.80
680;DHT22;322;48.846;9.230;2024-02-21T10:56:06;16.00;68.70
680;DHT22;322;48.846;9.230;2024-02-21T10:58:40;16.00;66.70
680;DHT22;322;48.846;9.230;2024-02-21T11:01:09;15.90;68.40
680;DHT22;322;48.846;9.230;2024-02-21T11:03:39;15.70;66.70
680;DHT22;322;48.846;9.230;2024-02-21T11:06:09;15.40;65.50
680;DHT22;322;48.846;9.230;2024-02-21T11:08:39;15.10;67.20
680;DHT22;322;48.846;9.230;2024-02-21T11:11:07;15.10;68.70
680;DHT22;322;48.846;9.230;2024-02-21T11:13:49;14.80;70.00
680;DHT22;322;48.846;9.230;2024-02-21T11:16:22;14.80;69.00
680;DHT22;322;48.846;9.230;2024-02-21T11:18:50;15.00;67.80
680;DHT22;322;48.846;9.230;2024-02-21T11:21:18;14.90;67.10
680;DHT22;322;48.846;9.230;2024-02-21T11:23:56;14.90;65.10
680;DHT22;322;48.846;9.230;2024-02-21T11:26:28;15.00;66.60
680;DHT22;322;48.846;9.230;2024-02-21T11:28:58;14.70;64.00
680;DHT22;322;48.846;9.230;2024-02-21T11:31:26;14.60;65.80
680;DHT22;322;48.846;9.230;2024-02-21T11:33:55;14.60;67.40
680;DHT22;322;48.846;9.230;2024-02-21T11:36:25;14.80;67.40
680;DHT22;322;48.846;9.230;2024-02-21T11:38:55;15.20;64.80
680;DHT22;322;48.846;9.230;2024-02-21T11:41:31;15.30;61.50
680;DHT22;322;48.846;9.230;2024-02-21T11:43:58;15.40;61.40
680;DHT22;322;48.846;9.230;2024-02-21T11:46:27;15.60;63.80
680;DHT22;322;48.846;9.230;2024-02-21T11:48:55;15.80;62.20
680;DHT22;322;48.846;9.230;2024-02-21T11:51:27;16.00;63.50
680;DHT22;322;48.846;9.230;2024-02-21T11:53:56;16.30;62.00
680;DHT22;322;48.846;9.230;2024-02-21T11:56:28;16.40;61.60
680;DHT22;322;48.846;9.230;2024-02-21T11:58:58;16.60;62.50
680;DHT22;322;48.846;9.230;2024-02-21T12:01:27;16.40;59.20
680;DHT22;322;48.846;9.230;2024-02-21T12:03:55;16.00;58.20
680;DHT22;322;48.846;9.230;2024-02-21T12:06:23;15.60;59.70
680;DHT22;322;48.846;9.230;2024-02-21T12:08:51;15.60;60.20
680;DHT22;322;48.846;9.230;2024-02-21T12:11:22;15.60;60.90
680;DHT22;322;48.846;9.230;2024-02-21T12:14:00;15.60;60.00
680;DHT22;322;48.846;9.230;2024-02-21T12:16:30;15.80;61.80
680;DHT22;322;48.846;9.230;2024-02-21T12:18:59;15.90;63.30
680;DHT22;322;48.846;9.230;2024-02-21T12:21:30;16.00;61.40
680;DHT22;322;48.846;9.230;2024-02-21T12:23:59;16.10;60.10
680;DHT22;322;48.846;9.230;2024-02-21T12:26:29;16.10;59.10
680;DHT22;322;48.846;9.230;2024-02-21T12:28:57;16.20;59.10
680;DHT22;322;48.846;9.230;2024-02-21T12:31:25;16.40;58.70
680;DHT22;322;48.846;9.230;2024-02-21T12:33:53;16.30;59.10
680;DHT22;322;48.846;9.230;2024-02-21T12:36:21;16.40;59.20
680;DHT22;322;48.846;9.230;2024-02-21T12:38:50;16.50;60.70
680;DHT22;322;48.846;9.230;2024-02-21T12:41:18;16.50;58.10
680;DHT22;322;48.846;9.230;2024-02-21T12:43:47;16.20;58.20
680;DHT22;322;48.846;9.230;2024-02-21T12:46:15;16.20;57.80
680;DHT22;322;48.846;9.230;2024-02-21T12:48:43;16.50;57.50
680;DHT22;322;48.846;9.230;2024-02-21T12:51:11;16.20;58.00
680;DHT22;322;48.846;9.230;2024-02-21T12:53:39;15.70;59.50
680;DHT22;322;48.846;9.230;2024-02-21T12:56:07;15.50;58.30
680;DHT22;322;48.846;9.230;2024-02-21T12:58:35;15.40;59.60
680;DHT22;322;48.846;9.230;2024-02-21T13:01:05;15.40;60.40
680;DHT22;322;48.846;9.230;2024-02-21T13:03:33;15.50;57.40
680;DHT22;322;48.846;9.230;2024-02-21T13:06:01;15.60;56.70
680;DHT22;322;48.846;9.230;2024-02-21T13:08:29;15.50;60.80
680;DHT22;322;48.846;9.230;2024-02-21T13:10:57;15.50;62.20
680;DHT22;322;48.846;9.230;2024-02-21T13:13:25;15.50;61.70
680;DHT22;322;48.846;9.230;2024-02-21T13:15:53;15.30;61.30
680;DHT22;322;48.846;9.230;2024-02-21T13:18:22;15.40;62.60
680;DHT22;322;48.846;9.230;2024-02-21T13:20:50;15.60;64.00
680;DHT22;322;48.846;9.230;2024-02-21T13:23:19;15.50;61.00
680;DHT22;322;48.846;9.230;2024-02-21T13:25:48;15.20;61.90
680;DHT22;322;48.846;9.230;2024-02-21T13:28:17;15.10;65.00
680;DHT22;322;48.846;9.230;2024-02-21T13:30:45;15.20;65.30
680;DHT22;322;48.846;9.230;2024-02-21T13:33:13;15.40;65.60
680;DHT22;322;48.846;9.230;2024-02-21T13:35:42;15.50;66.30
680;DHT22;322;48.846;9.230;2024-02-21T13:38:11;15.70;66.80
680;DHT22;322;48.846;9.230;2024-02-21T13:40:40;15.80;67.30
680;DHT22;322;48.846;9.230;2024-02-21T13:43:09;16.00;66.80
680;DHT22;322;48.846;9.230;2024-02-21T13:45:38;16.00;64.00
680;DHT22;322;48.846;9.230;2024-02-21T13:48:09;15.90;60.40
680;DHT22;322;48.846;9.230;2024-02-21T13:50:43;15.70;63.70
680;DHT22;322;48.846;9.230;2024-02-21T13:53:11;15.70;64.60
680;DHT22;322;48.846;9.230;2024-02-21T13:55:39;15.80;63.10
680;DHT22;322;48.846;9.230;2024-02-21T13:58:07;15.60;64.10
680;DHT22;322;48.846;9.230;2024-02-21T14:00:35;15.40;63.00
680;DHT22;322;48.846;9.230;2024-02-21T14:03:04;15.20;65.80
680;DHT22;322;48.846;9.230;2024-02-21T14:05:32;15.20;64.80
680;DHT22;322;48.846;9.230;2024-02-21T14:08:01;15.00;66.10
680;DHT22;322;48.846;9.230;2024-02-21T14:10:29;15.20;65.60
680;DHT22;322;48.846;9.230;2024-02-21T14:12:57;15.00;65.70
680;DHT22;322;48.846;9.230;2024-02-21T14:15:25;15.00;65.50
680;DHT22;322;48.846;9.230;2024-02-21T14:17:53;14.90;64.00
680;DHT22;322;48.846;9.230;2024-02-21T14:20:22;14.80;65.60
680;DHT22;322;48.846;9.230;2024-02-21T14:22:50;14.70;66.40
680;DHT22;322;48.846;9.230;2024-02-21T14:25:19;14.70;65.40
680;DHT22;322;48.846;9.230;2024-02-21T14:27:47;14.60;64.60
680;DHT22;322;48.846;9.230;2024-02-21T14:30:15;14.70;63.90
680;DHT22;322;48.846;9.230;2024-02-21T14:32:44;14.60;64.20
680;DHT22;322;48.846;9.230;2024-02-21T14:35:13;14.40;63.90
680;DHT22;322;48.846;9.230;2024-02-21T14:37:40;14.30;65.70
680;DHT22;322;48.846;9.230;2024-02-21T14:40:09;14.30;65.80
680;DHT22;322;48.846;9.230;2024-02-21T14:42:38;14.20;68.50
680;DHT22;322;48.846;9.230;2024-02-21T14:45:07;14.20;69.90
680;DHT22;322;48.846;9.230;2024-02-21T14:47:35;14.40;70.00
680;DHT22;322;48.846;9.230;2024-02-21T14:50:04;14.50;71.60
680;DHT22;322;48.846;9.230;2024-02-21T14:52:32;14.60;70.70
680;DHT22;322;48.846;9.230;2024-02-21T14:55:01;14.70;71.70
680;DHT22;322;48.846;9.230;2024-02-21T14:57:30;14.70;71.70
680;DHT22;322;48.846;9.230;2024-02-21T14:59:59;14.80;71.30
680;DHT22;322;48.846;9.230;2024-02-21T15:02:28;14.60;68.40
680;DHT22;322;48.846;9.230;2024-02-21T15:04:56;14.60;70.20
680;DHT22;322;48.846;9.230;2024-02-21T15:07:24;14.60;65.40
680;DHT22;322;48.846;9.230;2024-02-21T15:09:53;14.50;58.00
680;DHT22;322;48.846;9.230;2024-02-21T15:12:21;14.30;63.70
680;DHT22;322;48.846;9.230;2024-02-21T15:14:50;14.20;66.20
680;DHT22;322;48.846;9.230;2024-02-21T15:17:19;14.00;66.50
680;DHT22;322;48.846;9.230;2024-02-21T15:19:48;14.00;60.00
680;DHT22;322;48.846;9.230;2024-02-21T15:22:16;14.00;58.20
680;DHT22;322;48.846;9.230;2024-02-21T15:24:46;13.90;56.20
680;DHT22;322;48.846;9.230;2024-02-21T15:27:15;13.90;57.10
680;DHT22;322;48.846;9.230;2024-02-21T15:29:43;13.80;54.80
680;DHT22;322;48.846;9.230;2024-02-21T15:32:11;13.80;55.90
680;DHT22;322;48.846;9.230;2024-02-21T15:34:41;13.80;55.50
680;DHT22;322;48.846;9.230;2024-02-21T15:37:09;13.90;54.60
680;DHT22;322;48.846;9.230;2024-02-21T15:39:38;13.80;53.60
680;DHT22;322;48.846;9.230;2024-02-21T15:42:06;13.70;53.90
680;DHT22;322;48.846;9.230;2024-02-21T15:44:34;13.70;54.40
680;DHT22;322;48.846;9.230;2024-02-21T15:47:03;13.70;54.00
680;DHT22;322;48.846;9.230;2024-02-21T15:49:31;13.60;55.40
680;DHT22;322;48.846;9.230;2024-02-21T15:52:01;13.50;56.00
680;DHT22;322;48.846;9.230;2024-02-21T15:54:29;13.40;55.70
680;DHT22;322;48.846;9.230;2024-02-21T15:56:57;13.40;56.00
680;DHT22;322;48.846;9.230;2024-02-21T15:59:25;13.30;56.10
680;DHT22;322;48.846;9.230;2024-02-21T16:01:53;13.20;56.30
680;DHT22;322;48.846;9.230;2024-02-21T16:04:21;13.20;56.60
680;DHT22;322;48.846;9.230;2024-02-21T16:06:50;13.20;57.70
680;DHT22;322;48.846;9.230;2024-02-21T16:09:20;13.00;59.00
680;DHT22;322;48.846;9.230;2024-02-21T16:11:48;12.90;60.60
680;DHT22;322;48.846;9.230;2024-02-21T16:14:16;12.80;62.50
680;DHT22;322;48.846;9.230;2024-02-21T16:16:45;12.80;62.80
680;DHT22;322;48.846;9.230;2024-02-21T16:19:13;12.70;62.60
680;DHT22;322;48.846;9.230;2024-02-21T16:21:41;12.60;62.60
680;DHT22;322;48.846;9.230;2024-02-21T16:24:09;12.60;63.70
680;DHT22;322;48.846;9.230;2024-02-21T16:26:39;12.50;64.20
680;DHT22;322;48.846;9.230;2024-02-21T16:29:07;12.40;64.40
680;DHT22;322;48.846;9.230;2024-02-21T16:31:38;12.30;64.90
680;DHT22;322;48.846;9.230;2024-02-21T16:34:06;12.10;66.60
680;DHT22;322;48.846;9.230;2024-02-21T16:36:34;12.00;66.30
680;DHT22;322;48.846;9.230;2024-02-21T16:39:02;11.80;69.80
680;DHT22;322;48.846;9.230;2024-02-21T16:41:31;11.70;67.80
680;DHT22;322;48.846;9.230;2024-02-21T16:44:01;11.60;70.80
680;DHT22;322;48.846;9.230;2024-02-21T16:46:29;11.50;73.10
680;DHT22;322;48.846;9.230;2024-02-21T16:48:57;11.50;72.80
680;DHT22;322;48.846;9.230;2024-02-21T16:51:26;11.50;74.00
680;DHT22;322;48.846;9.230;2024-02-21T16:53:54;11.50;73.80